sensor_id;sensor_type;location;lat;lon;timestamp;P1;durP1;ratioP1;P2;durP2;ratioP2
68614;SDS011;55593;51.994;5.882;2022-09-13T00:01:42;11.80;;;9.80;;
68614;SDS011;55593;51.994;5.882;2022-09-13T00:04:11;15.60;;;10.30;;
68614;SDS011;55593;51.994;5.882;2022-09-13T00:06:40;11.25;;;9.45;;
68614;SDS011;55593;51.994;5.882;2022-09-13T00:09:09;16.75;;;9.82;;
68614;SDS011;55593;51.994;5.882;2022-09-13T00:11:39;14.63;;;10.55;;
68614;SDS011;55593;51.994;5.882;2022-09-13T00:14:08;15.73;;;11.20;;
68614;SDS011;55593;51.994;5.882;2022-09-13T00:16:39;19.77;;;11.77;;
68614;SDS011;55593;51.994;5.882;2022-09-13T00:19:08;15.15;;;11.18;;
68614;SDS011;55593;51.994;5.882;2022-09-13T00:21:38;15.45;;;10.73;;
68614;SDS011;55593;51.994;5.882;2022-09-13T00:24:07;15.98;;;12.07;;
68614;SDS011;55593;51.994;5.882;2022-09-13T00:26:36;15.38;;;11.55;;
68614;SDS011;55593;51.994;5.882;2022-09-13T00:29:05;13.90;;;11.75;;
68614;SDS011;55593;51.994;5.882;2022-09-13T00:31:34;25.48;;;12.10;;
68614;SDS011;55593;51.994;5.882;2022-09-13T00:34:06;17.92;;;12.95;;
68614;SDS011;55593;51.994;5.882;2022-09-13T00:36:35;14.15;;;12.10;;
68614;SDS011;55593;51.994;5.882;2022-09-13T00:39:04;17.77;;;12.75;;
68614;SDS011;55593;51.994;5.882;2022-09-13T00:41:33;16.95;;;13.15;;
68614;SDS011;55593;51.994;5.882;2022-09-13T00:44:03;16.83;;;12.18;;
68614;SDS011;55593;51.994;5.882;2022-09-13T00:46:34;16.67;;;12.90;;
68614;SDS011;55593;51.994;5.882;2022-09-13T00:49:10;14.75;;;12.02;;
68614;SDS011;55593;51.994;5.882;2022-09-13T00:51:45;14.95;;;12.25;;
68614;SDS011;55593;51.994;5.882;2022-09-13T00:54:17;15.57;;;11.60;;
68614;SDS011;55593;51.994;5.882;2022-09-13T00:56:48;16.63;;;12.30;;
68614;SDS011;55593;51.994;5.882;2022-09-13T00:59:20;16.45;;;13.55;;
68614;SDS011;55593;51.994;5.882;2022-09-13T01:01:52;20.63;;;12.75;;
68614;SDS011;55593;51.994;5.882;2022-09-13T01:04:26;19.60;;;14.20;;
68614;SDS011;55593;51.994;5.882;2022-09-13T01:06:57;17.15;;;13.65;;
68614;SDS011;55593;51.994;5.882;2022-09-13T01:09:28;17.75;;;13.57;;
68614;SDS011;55593;51.994;5.882;2022-09-13T01:12:02;14.73;;;12.70;;
68614;SDS011;55593;51.994;5.882;2022-09-13T01:14:35;14.70;;;12.50;;
68614;SDS011;55593;51.994;5.882;2022-09-13T01:17:05;17.33;;;13.23;;
68614;SDS011;55593;51.994;5.882;2022-09-13T01:19:36;17.00;;;12.38;;
68614;SDS011;55593;51.994;5.882;2022-09-13T01:25:10;14.50;;;11.02;;
68614;SDS011;55593;51.994;5.882;2022-09-13T01:27:57;17.40;;;11.48;;
68614;SDS011;55593;51.994;5.882;2022-09-13T01:30:34;20.10;;;13.60;;
68614;SDS011;55593;51.994;5.882;2022-09-13T01:33:24;15.93;;;12.90;;
68614;SDS011;55593;51.994;5.882;2022-09-13T01:36:13;17.02;;;14.45;;
68614;SDS011;55593;51.994;5.882;2022-09-13T01:38:52;19.42;;;12.55;;
68614;SDS011;55593;51.994;5.882;2022-09-13T01:41:29;13.23;;;11.63;;
68614;SDS011;55593;51.994;5.882;2022-09-13T01:44:09;15.95;;;12.32;;
68614;SDS011;55593;51.994;5.882;2022-09-13T01:46:45;14.75;;;12.13;;
68614;SDS011;55593;51.994;5.882;2022-09-13T01:49:17;14.50;;;11.68;;
68614;SDS011;55593;51.994;5.882;2022-09-13T01:51:51;15.52;;;11.60;;
68614;SDS011;55593;51.994;5.882;2022-09-13T01:54:24;13.02;;;11.63;;
68614;SDS011;55593;51.994;5.882;2022-09-13T01:56:59;16.20;;;12.93;;
68614;SDS011;55593;51.994;5.882;2022-09-13T01:59:34;16.42;;;12.90;;
68614;SDS011;55593;51.994;5.882;2022-09-13T02:02:10;14.10;;;12.30;;
68614;SDS011;55593;51.994;5.882;2022-09-13T02:04:45;21.35;;;12.50;;
68614;SDS011;55593;51.994;5.882;2022-09-13T02:07:20;18.50;;;13.00;;
68614;SDS011;55593;51.994;5.882;2022-09-13T02:09:53;16.90;;;13.77;;
68614;SDS011;55593;51.994;5.882;2022-09-13T02:12:25;16.63;;;13.65;;
68614;SDS011;55593;51.994;5.882;2022-09-13T02:14:56;15.98;;;12.77;;
68614;SDS011;55593;51.994;5.882;2022-09-13T02:17:35;15.82;;;12.82;;
68614;SDS011;55593;51.994;5.882;2022-09-13T02:20:07;16.50;;;12.55;;
68614;SDS011;55593;51.994;5.882;2022-09-13T02:22:40;16.52;;;11.18;;
68614;SDS011;55593;51.994;5.882;2022-09-13T02:25:14;15.20;;;12.20;;
68614;SDS011;55593;51.994;5.882;2022-09-13T02:27:46;17.50;;;13.55;;
68614;SDS011;55593;51.994;5.882;2022-09-13T02:30:19;16.70;;;11.25;;
68614;SDS011;55593;51.994;5.882;2022-09-13T02:32:51;13.93;;;10.88;;
68614;SDS011;55593;51.994;5.882;2022-09-13T02:35:24;15.80;;;11.30;;
68614;SDS011;55593;51.994;5.882;2022-09-13T02:37:59;13.57;;;12.10;;
68614;SDS011;55593;51.994;5.882;2022-09-13T02:40:31;20.65;;;12.23;;
68614;SDS011;55593;51.994;5.882;2022-09-13T02:43:06;18.77;;;13.52;;
68614;SDS011;55593;51.994;5.882;2022-09-13T02:45:41;14.05;;;11.27;;
68614;SDS011;55593;51.994;5.882;2022-09-13T02:48:18;16.02;;;12.13;;
68614;SDS011;55593;51.994;5.882;2022-09-13T02:50:52;16.23;;;12.10;;
68614;SDS011;55593;51.994;5.882;2022-09-13T02:53:28;15.50;;;10.25;;
68614;SDS011;55593;51.994;5.882;2022-09-13T02:56:06;14.23;;;10.80;;
68614;SDS011;55593;51.994;5.882;2022-09-13T02:58:47;13.48;;;11.43;;
68614;SDS011;55593;51.994;5.882;2022-09-13T03:01:20;14.10;;;11.20;;
68614;SDS011;55593;51.994;5.882;2022-09-13T03:03:53;13.80;;;11.88;;
68614;SDS011;55593;51.994;5.882;2022-09-13T03:06:22;15.40;;;12.70;;
68614;SDS011;55593;51.994;5.882;2022-09-13T03:08:52;18.95;;;13.15;;
68614;SDS011;55593;51.994;5.882;2022-09-13T03:11:23;17.80;;;13.80;;
68614;SDS011;55593;51.994;5.882;2022-09-13T03:14:07;17.23;;;12.90;;
68614;SDS011;55593;51.994;5.882;2022-09-13T03:16:47;15.15;;;12.88;;
68614;SDS011;55593;51.994;5.882;2022-09-13T03:19:32;14.82;;;13.23;;
68614;SDS011;55593;51.994;5.882;2022-09-13T03:22:14;18.23;;;14.05;;
68614;SDS011;55593;51.994;5.882;2022-09-13T03:24:52;14.88;;;12.63;;
68614;SDS011;55593;51.994;5.882;2022-09-13T03:27:29;13.40;;;11.68;;
68614;SDS011;55593;51.994;5.882;2022-09-13T03:30:03;20.13;;;13.07;;
68614;SDS011;55593;51.994;5.882;2022-09-13T03:32:34;19.50;;;12.27;;
68614;SDS011;55593;51.994;5.882;2022-09-13T03:35:16;16.98;;;13.70;;
68614;SDS011;55593;51.994;5.882;2022-09-13T03:37:49;19.27;;;12.90;;
68614;SDS011;55593;51.994;5.882;2022-09-13T03:40:25;16.77;;;12.30;;
68614;SDS011;55593;51.994;5.882;2022-09-13T03:43:03;19.95;;;14.77;;
68614;SDS011;55593;51.994;5.882;2022-09-13T03:45:39;14.13;;;12.63;;
68614;SDS011;55593;51.994;5.882;2022-09-13T03:48:10;18.98;;;13.48;;
68614;SDS011;55593;51.994;5.882;2022-09-13T03:50:43;17.17;;;14.77;;
68614;SDS011;55593;51.994;5.882;2022-09-13T03:53:15;17.80;;;14.27;;
68614;SDS011;55593;51.994;5.882;2022-09-13T03:55:47;20.52;;;14.75;;
68614;SDS011;55593;51.994;5.882;2022-09-13T03:58:17;16.83;;;14.13;;
68614;SDS011;55593;51.994;5.882;2022-09-13T04:00:47;20.50;;;16.02;;
68614;SDS011;55593;51.994;5.882;2022-09-13T04:03:18;18.30;;;14.48;;
68614;SDS011;55593;51.994;5.882;2022-09-13T04:05:49;19.73;;;16.23;;
68614;SDS011;55593;51.994;5.882;2022-09-13T04:08:19;17.75;;;14.32;;
68614;SDS011;55593;51.994;5.882;2022-09-13T04:10:48;16.55;;;14.52;;
68614;SDS011;55593;51.994;5.882;2022-09-13T04:13:19;18.65;;;13.60;;
68614;SDS011;55593;51.994;5.882;2022-09-13T04:15:48;17.35;;;14.85;;
68614;SDS011;55593;51.994;5.882;2022-09-13T04:18:18;18.83;;;14.55;;
68614;SDS011;55593;51.994;5.882;2022-09-13T04:20:55;17.48;;;13.52;;
68614;SDS011;55593;51.994;5.882;2022-09-13T04:23:25;16.73;;;14.88;;
68614;SDS011;55593;51.994;5.882;2022-09-13T04:25:59;22.27;;;14.38;;
68614;SDS011;55593;51.994;5.882;2022-09-13T04:28:29;16.92;;;12.75;;
68614;SDS011;55593;51.994;5.882;2022-09-13T04:30:58;19.38;;;14.55;;
68614;SDS011;55593;51.994;5.882;2022-09-13T04:33:27;20.48;;;15.50;;
68614;SDS011;55593;51.994;5.882;2022-09-13T04:35:59;17.05;;;14.07;;
68614;SDS011;55593;51.994;5.882;2022-09-13T04:38:29;18.92;;;14.10;;
68614;SDS011;55593;51.994;5.882;2022-09-13T04:40:58;17.40;;;13.75;;
68614;SDS011;55593;51.994;5.882;2022-09-13T04:43:27;16.02;;;12.88;;
68614;SDS011;55593;51.994;5.882;2022-09-13T04:45:58;19.27;;;13.70;;
68614;SDS011;55593;51.994;5.882;2022-09-13T04:48:27;16.60;;;13.73;;
68614;SDS011;55593;51.994;5.882;2022-09-13T04:51:02;18.60;;;13.90;;
68614;SDS011;55593;51.994;5.882;2022-09-13T04:53:32;18.02;;;15.00;;
68614;SDS011;55593;51.994;5.882;2022-09-13T04:56:03;17.90;;;13.57;;
68614;SDS011;55593;51.994;5.882;2022-09-13T04:58:34;19.77;;;14.30;;
68614;SDS011;55593;51.994;5.882;2022-09-13T05:01:03;18.33;;;15.00;;
68614;SDS011;55593;51.994;5.882;2022-09-13T05:03:34;21.10;;;16.10;;
68614;SDS011;55593;51.994;5.882;2022-09-13T05:06:07;20.45;;;14.82;;
68614;SDS011;55593;51.994;5.882;2022-09-13T05:08:36;18.00;;;14.52;;
68614;SDS011;55593;51.994;5.882;2022-09-13T05:11:06;20.20;;;15.82;;
68614;SDS011;55593;51.994;5.882;2022-09-13T05:13:35;24.35;;;17.55;;
68614;SDS011;55593;51.994;5.882;2022-09-13T05:16:05;19.90;;;16.95;;
68614;SDS011;55593;51.994;5.882;2022-09-13T05:18:35;21.70;;;15.68;;
68614;SDS011;55593;51.994;5.882;2022-09-13T05:21:07;19.25;;;14.55;;
68614;SDS011;55593;51.994;5.882;2022-09-13T05:23:36;21.33;;;16.02;;
68614;SDS011;55593;51.994;5.882;2022-09-13T05:26:06;21.13;;;15.80;;
68614;SDS011;55593;51.994;5.882;2022-09-13T05:28:35;21.10;;;15.40;;
68614;SDS011;55593;51.994;5.882;2022-09-13T05:31:05;19.23;;;15.55;;
68614;SDS011;55593;51.994;5.882;2022-09-13T05:33:36;20.80;;;14.65;;
68614;SDS011;55593;51.994;5.882;2022-09-13T05:36:08;19.00;;;16.00;;
68614;SDS011;55593;51.994;5.882;2022-09-13T05:38:38;20.50;;;14.90;;
68614;SDS011;55593;51.994;5.882;2022-09-13T05:41:07;17.05;;;14.70;;
68614;SDS011;55593;51.994;5.882;2022-09-13T05:43:36;20.50;;;15.88;;
68614;SDS011;55593;51.994;5.882;2022-09-13T05:46:06;20.55;;;15.60;;
68614;SDS011;55593;51.994;5.882;2022-09-13T05:48:37;18.98;;;16.20;;
68614;SDS011;55593;51.994;5.882;2022-09-13T05:51:10;20.80;;;15.93;;
68614;SDS011;55593;51.994;5.882;2022-09-13T05:53:41;25.17;;;17.42;;
68614;SDS011;55593;51.994;5.882;2022-09-13T05:56:12;21.10;;;16.10;;
68614;SDS011;55593;51.994;5.882;2022-09-13T05:58:44;22.27;;;16.77;;
68614;SDS011;55593;51.994;5.882;2022-09-13T06:01:14;21.73;;;16.30;;
68614;SDS011;55593;51.994;5.882;2022-09-13T06:03:45;27.33;;;19.02;;
68614;SDS011;55593;51.994;5.882;2022-09-13T06:06:17;20.83;;;17.08;;
68614;SDS011;55593;51.994;5.882;2022-09-13T06:08:47;20.55;;;16.88;;
68614;SDS011;55593;51.994;5.882;2022-09-13T06:11:19;24.92;;;17.98;;
68614;SDS011;55593;51.994;5.882;2022-09-13T06:13:49;19.67;;;16.45;;
68614;SDS011;55593;51.994;5.882;2022-09-13T06:16:18;25.70;;;18.23;;
68614;SDS011;55593;51.994;5.882;2022-09-13T06:18:48;20.90;;;17.08;;
68614;SDS011;55593;51.994;5.882;2022-09-13T06:21:20;21.67;;;17.70;;
68614;SDS011;55593;51.994;5.882;2022-09-13T06:23:51;23.52;;;17.15;;
68614;SDS011;55593;51.994;5.882;2022-09-13T06:26:21;25.05;;;18.30;;
68614;SDS011;55593;51.994;5.882;2022-09-13T06:28:52;30.23;;;18.15;;
68614;SDS011;55593;51.994;5.882;2022-09-13T06:31:22;19.15;;;17.10;;
68614;SDS011;55593;51.994;5.882;2022-09-13T06:33:56;27.77;;;20.67;;
68614;SDS011;55593;51.994;5.882;2022-09-13T06:36:29;22.48;;;18.65;;
68614;SDS011;55593;51.994;5.882;2022-09-13T06:38:58;38.63;;;20.08;;
68614;SDS011;55593;51.994;5.882;2022-09-13T06:41:29;27.90;;;19.20;;
68614;SDS011;55593;51.994;5.882;2022-09-13T06:43:59;23.42;;;17.95;;
68614;SDS011;55593;51.994;5.882;2022-09-13T06:46:29;28.83;;;20.33;;
68614;SDS011;55593;51.994;5.882;2022-09-13T06:49:03;27.38;;;22.10;;
68614;SDS011;55593;51.994;5.882;2022-09-13T06:51:38;27.15;;;22.10;;
68614;SDS011;55593;51.994;5.882;2022-09-13T06:54:07;31.33;;;21.83;;
68614;SDS011;55593;51.994;5.882;2022-09-13T06:56:37;31.33;;;22.85;;
68614;SDS011;55593;51.994;5.882;2022-09-13T06:59:06;29.48;;;22.27;;
68614;SDS011;55593;51.994;5.882;2022-09-13T07:01:38;34.00;;;23.88;;
68614;SDS011;55593;51.994;5.882;2022-09-13T07:04:08;35.70;;;27.35;;
68614;SDS011;55593;51.994;5.882;2022-09-13T07:06:42;35.08;;;24.48;;
68614;SDS011;55593;51.994;5.882;2022-09-13T07:09:14;36.15;;;24.67;;
68614;SDS011;55593;51.994;5.882;2022-09-13T07:11:44;34.17;;;24.67;;
68614;SDS011;55593;51.994;5.882;2022-09-13T07:14:15;35.65;;;25.98;;
68614;SDS011;55593;51.994;5.882;2022-09-13T07:16:45;35.65;;;23.70;;
68614;SDS011;55593;51.994;5.882;2022-09-13T07:19:17;38.60;;;28.15;;
68614;SDS011;55593;51.994;5.882;2022-09-13T07:21:50;40.65;;;26.92;;
68614;SDS011;55593;51.994;5.882;2022-09-13T07:24:20;38.55;;;26.88;;
68614;SDS011;55593;51.994;5.882;2022-09-13T07:26:49;37.00;;;24.08;;
68614;SDS011;55593;51.994;5.882;2022-09-13T07:29:19;35.58;;;26.02;;
68614;SDS011;55593;51.994;5.882;2022-09-13T07:31:50;35.33;;;25.17;;
68614;SDS011;55593;51.994;5.882;2022-09-13T07:34:21;36.10;;;25.95;;
68614;SDS011;55593;51.994;5.882;2022-09-13T07:36:54;34.28;;;24.33;;
68614;SDS011;55593;51.994;5.882;2022-09-13T07:39:24;33.92;;;24.33;;
68614;SDS011;55593;51.994;5.882;2022-09-13T07:41:53;32.10;;;23.33;;
68614;SDS011;55593;51.994;5.882;2022-09-13T07:44:22;29.50;;;21.83;;
68614;SDS011;55593;51.994;5.882;2022-09-13T07:46:51;32.13;;;19.92;;
68614;SDS011;55593;51.994;5.882;2022-09-13T07:49:20;30.42;;;21.52;;
68614;SDS011;55593;51.994;5.882;2022-09-13T07:51:49;24.10;;;18.00;;
68614;SDS011;55593;51.994;5.882;2022-09-13T07:54:21;27.38;;;17.30;;
68614;SDS011;55593;51.994;5.882;2022-09-13T07:56:50;25.20;;;17.88;;
68614;SDS011;55593;51.994;5.882;2022-09-13T07:59:19;23.17;;;16.63;;
68614;SDS011;55593;51.994;5.882;2022-09-13T08:01:49;21.85;;;15.48;;
68614;SDS011;55593;51.994;5.882;2022-09-13T08:04:19;19.23;;;12.57;;
68614;SDS011;55593;51.994;5.882;2022-09-13T08:06:52;16.42;;;9.38;;
68614;SDS011;55593;51.994;5.882;2022-09-13T08:09:24;15.80;;;9.52;;
68614;SDS011;55593;51.994;5.882;2022-09-13T08:11:53;18.00;;;10.10;;
68614;SDS011;55593;51.994;5.882;2022-09-13T08:14:22;15.27;;;10.07;;
68614;SDS011;55593;51.994;5.882;2022-09-13T08:16:53;11.40;;;7.38;;
68614;SDS011;55593;51.994;5.882;2022-09-13T08:19:22;16.75;;;9.20;;
68614;SDS011;55593;51.994;5.882;2022-09-13T08:21:52;14.05;;;9.55;;
68614;SDS011;55593;51.994;5.882;2022-09-13T08:24:23;15.95;;;10.18;;
68614;SDS011;55593;51.994;5.882;2022-09-13T08:26:53;23.30;;;13.77;;
68614;SDS011;55593;51.994;5.882;2022-09-13T08:29:22;21.17;;;15.68;;
68614;SDS011;55593;51.994;5.882;2022-09-13T08:31:52;20.38;;;15.30;;
68614;SDS011;55593;51.994;5.882;2022-09-13T08:34:21;25.35;;;17.08;;
68614;SDS011;55593;51.994;5.882;2022-09-13T08:36:52;30.00;;;18.08;;
68614;SDS011;55593;51.994;5.882;2022-09-13T08:39:23;34.03;;;21.20;;
68614;SDS011;55593;51.994;5.882;2022-09-13T08:41:59;25.25;;;19.05;;
68614;SDS011;55593;51.994;5.882;2022-09-13T08:44:32;28.85;;;22.00;;
68614;SDS011;55593;51.994;5.882;2022-09-13T08:47:06;35.22;;;23.52;;
68614;SDS011;55593;51.994;5.882;2022-09-13T08:49:47;32.65;;;22.45;;
68614;SDS011;55593;51.994;5.882;2022-09-13T08:52:22;31.08;;;22.55;;
68614;SDS011;55593;51.994;5.882;2022-09-13T08:54:58;35.33;;;24.00;;
68614;SDS011;55593;51.994;5.882;2022-09-13T08:57:31;31.10;;;21.38;;
68614;SDS011;55593;51.994;5.882;2022-09-13T09:00:03;30.58;;;19.73;;
68614;SDS011;55593;51.994;5.882;2022-09-13T09:02:45;32.80;;;21.55;;
68614;SDS011;55593;51.994;5.882;2022-09-13T09:05:18;25.05;;;18.00;;
68614;SDS011;55593;51.994;5.882;2022-09-13T09:07:49;27.52;;;18.45;;
68614;SDS011;55593;51.994;5.882;2022-09-13T09:10:23;28.08;;;19.20;;
68614;SDS011;55593;51.994;5.882;2022-09-13T09:12:54;22.27;;;16.67;;
68614;SDS011;55593;51.994;5.882;2022-09-13T09:15:25;28.88;;;16.08;;
68614;SDS011;55593;51.994;5.882;2022-09-13T09:17:59;23.88;;;16.15;;
68614;SDS011;55593;51.994;5.882;2022-09-13T09:20:33;17.05;;;13.88;;
68614;SDS011;55593;51.994;5.882;2022-09-13T09:23:06;21.50;;;14.63;;
68614;SDS011;55593;51.994;5.882;2022-09-13T09:25:43;20.17;;;14.05;;
68614;SDS011;55593;51.994;5.882;2022-09-13T09:28:13;62.55;;;17.60;;
68614;SDS011;55593;51.994;5.882;2022-09-13T09:30:45;26.48;;;14.48;;
68614;SDS011;55593;51.994;5.882;2022-09-13T09:33:24;18.98;;;13.10;;
68614;SDS011;55593;51.994;5.882;2022-09-13T09:36:17;20.88;;;13.10;;
68614;SDS011;55593;51.994;5.882;2022-09-13T09:38:50;16.45;;;11.40;;
68614;SDS011;55593;51.994;5.882;2022-09-13T09:41:25;15.55;;;12.48;;
68614;SDS011;55593;51.994;5.882;2022-09-13T09:43:58;15.88;;;11.40;;
68614;SDS011;55593;51.994;5.882;2022-09-13T09:46:31;13.68;;;9.95;;
68614;SDS011;55593;51.994;5.882;2022-09-13T09:49:04;15.00;;;9.77;;
68614;SDS011;55593;51.994;5.882;2022-09-13T09:51:58;12.93;;;8.70;;
68614;SDS011;55593;51.994;5.882;2022-09-13T09:54:31;14.65;;;9.55;;
68614;SDS011;55593;51.994;5.882;2022-09-13T09:57:05;12.40;;;8.15;;
68614;SDS011;55593;51.994;5.882;2022-09-13T09:59:35;14.05;;;7.78;;
68614;SDS011;55593;51.994;5.882;2022-09-13T10:02:11;12.25;;;7.60;;
68614;SDS011;55593;51.994;5.882;2022-09-13T10:04:52;13.45;;;7.72;;
68614;SDS011;55593;51.994;5.882;2022-09-13T10:07:30;12.35;;;8.43;;
68614;SDS011;55593;51.994;5.882;2022-09-13T10:10:02;19.73;;;7.68;;
68614;SDS011;55593;51.994;5.882;2022-09-13T10:12:38;11.85;;;8.73;;
68614;SDS011;55593;51.994;5.882;2022-09-13T10:15:13;13.18;;;8.25;;
68614;SDS011;55593;51.994;5.882;2022-09-13T10:17:59;11.98;;;8.38;;
68614;SDS011;55593;51.994;5.882;2022-09-13T10:20:41;10.65;;;7.47;;
68614;SDS011;55593;51.994;5.882;2022-09-13T10:23:19;11.18;;;7.35;;
68614;SDS011;55593;51.994;5.882;2022-09-13T10:25:55;10.77;;;6.40;;
68614;SDS011;55593;51.994;5.882;2022-09-13T10:28:34;11.82;;;7.97;;
68614;SDS011;55593;51.994;5.882;2022-09-13T10:31:09;9.68;;;6.13;;
68614;SDS011;55593;51.994;5.882;2022-09-13T10:33:40;12.30;;;6.40;;
68614;SDS011;55593;51.994;5.882;2022-09-13T10:36:12;10.43;;;5.80;;
68614;SDS011;55593;51.994;5.882;2022-09-13T10:38:45;9.23;;;5.85;;
68614;SDS011;55593;51.994;5.882;2022-09-13T10:41:20;9.27;;;5.97;;
68614;SDS011;55593;51.994;5.882;2022-09-13T10:43:57;14.32;;;6.05;;
68614;SDS011;55593;51.994;5.882;2022-09-13T10:46:31;11.70;;;4.97;;
68614;SDS011;55593;51.994;5.882;2022-09-13T10:49:01;11.52;;;5.53;;
68614;SDS011;55593;51.994;5.882;2022-09-13T10:51:32;22.15;;;5.97;;
68614;SDS011;55593;51.994;5.882;2022-09-13T10:54:08;13.98;;;4.78;;
68614;SDS011;55593;51.994;5.882;2022-09-13T10:56:40;88.22;;;7.85;;
68614;SDS011;55593;51.994;5.882;2022-09-13T10:59:18;16.48;;;4.93;;
68614;SDS011;55593;51.994;5.882;2022-09-13T11:01:52;9.90;;;3.63;;
68614;SDS011;55593;51.994;5.882;2022-09-13T11:04:32;8.25;;;4.47;;
68614;SDS011;55593;51.994;5.882;2022-09-13T11:07:10;8.00;;;4.00;;
68614;SDS011;55593;51.994;5.882;2022-09-13T11:09:48;10.05;;;4.63;;
68614;SDS011;55593;51.994;5.882;2022-09-13T11:12:21;5.20;;;3.08;;
68614;SDS011;55593;51.994;5.882;2022-09-13T11:17:33;5.85;;;3.55;;
68614;SDS011;55593;51.994;5.882;2022-09-13T11:20:17;5.55;;;3.20;;
68614;SDS011;55593;51.994;5.882;2022-09-13T11:23:05;5.85;;;2.92;;
68614;SDS011;55593;51.994;5.882;2022-09-13T11:26:02;6.57;;;2.63;;
68614;SDS011;55593;51.994;5.882;2022-09-13T11:28:40;11.18;;;2.53;;
68614;SDS011;55593;51.994;5.882;2022-09-13T11:31:23;4.57;;;2.33;;
68614;SDS011;55593;51.994;5.882;2022-09-13T11:34:05;9.63;;;2.90;;
68614;SDS011;55593;51.994;5.882;2022-09-13T11:36:47;7.65;;;2.78;;
68614;SDS011;55593;51.994;5.882;2022-09-13T11:39:25;3.53;;;1.98;;
68614;SDS011;55593;51.994;5.882;2022-09-13T11:42:02;6.53;;;1.90;;
68614;SDS011;55593;51.994;5.882;2022-09-13T11:48:05;6.53;;;1.88;;
68614;SDS011;55593;51.994;5.882;2022-09-13T11:50:48;3.67;;;1.80;;
68614;SDS011;55593;51.994;5.882;2022-09-13T11:53:32;5.28;;;2.00;;
68614;SDS011;55593;51.994;5.882;2022-09-13T11:56:10;3.88;;;1.75;;
68614;SDS011;55593;51.994;5.882;2022-09-13T11:58:47;6.75;;;1.77;;
68614;SDS011;55593;51.994;5.882;2022-09-13T12:01:19;4.30;;;1.42;;
68614;SDS011;55593;51.994;5.882;2022-09-13T12:03:55;7.78;;;2.35;;
68614;SDS011;55593;51.994;5.882;2022-09-13T12:06:27;5.28;;;1.95;;
68614;SDS011;55593;51.994;5.882;2022-09-13T12:08:59;8.52;;;2.00;;
68614;SDS011;55593;51.994;5.882;2022-09-13T12:11:31;4.10;;;1.88;;
68614;SDS011;55593;51.994;5.882;2022-09-13T12:14:02;5.55;;;1.80;;
68614;SDS011;55593;51.994;5.882;2022-09-13T12:16:33;6.95;;;1.83;;
68614;SDS011;55593;51.994;5.882;2022-09-13T12:19:10;5.50;;;1.77;;
68614;SDS011;55593;51.994;5.882;2022-09-13T12:21:42;6.38;;;2.00;;
68614;SDS011;55593;51.994;5.882;2022-09-13T12:24:15;5.57;;;2.03;;
68614;SDS011;55593;51.994;5.882;2022-09-13T12:26:48;11.25;;;2.72;;
68614;SDS011;55593;51.994;5.882;2022-09-13T12:29:23;4.75;;;1.80;;
68614;SDS011;55593;51.994;5.882;2022-09-13T12:31:58;6.22;;;1.77;;
68614;SDS011;55593;51.994;5.882;2022-09-13T12:34:38;2.90;;;1.70;;
68614;SDS011;55593;51.994;5.882;2022-09-13T12:37:14;4.53;;;1.70;;
68614;SDS011;55593;51.994;5.882;2022-09-13T12:39:56;5.65;;;2.00;;
68614;SDS011;55593;51.994;5.882;2022-09-13T12:42:56;5.63;;;1.73;;
68614;SDS011;55593;51.994;5.882;2022-09-13T12:45:36;5.45;;;1.80;;
68614;SDS011;55593;51.994;5.882;2022-09-13T12:48:39;11.00;;;2.20;;
68614;SDS011;55593;51.994;5.882;2022-09-13T12:51:23;4.53;;;1.70;;
68614;SDS011;55593;51.994;5.882;2022-09-13T12:54:08;4.85;;;1.83;;
68614;SDS011;55593;51.994;5.882;2022-09-13T12:56:56;8.77;;;1.73;;
68614;SDS011;55593;51.994;5.882;2022-09-13T12:59:35;6.30;;;1.80;;
68614;SDS011;55593;51.994;5.882;2022-09-13T13:02:22;5.82;;;2.03;;
68614;SDS011;55593;51.994;5.882;2022-09-13T13:04:55;4.63;;;1.77;;
68614;SDS011;55593;51.994;5.882;2022-09-13T13:07:28;4.40;;;1.35;;
68614;SDS011;55593;51.994;5.882;2022-09-13T13:09:59;6.28;;;1.98;;
68614;SDS011;55593;51.994;5.882;2022-09-13T13:12:30;4.28;;;1.73;;
68614;SDS011;55593;51.994;5.882;2022-09-13T13:15:00;3.20;;;1.40;;
68614;SDS011;55593;51.994;5.882;2022-09-13T13:17:33;6.20;;;1.48;;
68614;SDS011;55593;51.994;5.882;2022-09-13T13:23:17;3.35;;;1.40;;
68614;SDS011;55593;51.994;5.882;2022-09-13T13:29:10;3.33;;;1.50;;
68614;SDS011;55593;51.994;5.882;2022-09-13T13:31:43;4.78;;;1.40;;
68614;SDS011;55593;51.994;5.882;2022-09-13T13:45:56;3.50;;;1.27;;
68614;SDS011;55593;51.994;5.882;2022-09-13T13:48:34;3.85;;;1.75;;
68614;SDS011;55593;51.994;5.882;2022-09-13T13:51:13;3.70;;;1.60;;
68614;SDS011;55593;51.994;5.882;2022-09-13T13:53:49;3.78;;;1.20;;
68614;SDS011;55593;51.994;5.882;2022-09-13T13:59:37;4.45;;;1.70;;
68614;SDS011;55593;51.994;5.882;2022-09-13T14:03:04;6.95;;;1.90;;
68614;SDS011;55593;51.994;5.882;2022-09-13T14:05:27;3.42;;;1.13;;
68614;SDS011;55593;51.994;5.882;2022-09-13T14:10:56;2.88;;;1.40;;
68614;SDS011;55593;51.994;5.882;2022-09-13T14:13:50;3.80;;;1.27;;
68614;SDS011;55593;51.994;5.882;2022-09-13T14:16:30;3.03;;;1.30;;
68614;SDS011;55593;51.994;5.882;2022-09-13T14:19:09;7.13;;;1.80;;
68614;SDS011;55593;51.994;5.882;2022-09-13T14:21:46;5.53;;;2.00;;
68614;SDS011;55593;51.994;5.882;2022-09-13T14:24:36;6.13;;;1.63;;
68614;SDS011;55593;51.994;5.882;2022-09-13T14:27:21;4.80;;;1.40;;
68614;SDS011;55593;51.994;5.882;2022-09-13T14:29:55;7.57;;;1.65;;
68614;SDS011;55593;51.994;5.882;2022-09-13T14:32:31;5.80;;;1.10;;
68614;SDS011;55593;51.994;5.882;2022-09-13T14:35:21;4.47;;;1.10;;
68614;SDS011;55593;51.994;5.882;2022-09-13T14:37:53;3.92;;;1.30;;
68614;SDS011;55593;51.994;5.882;2022-09-13T14:40:23;4.43;;;1.40;;
68614;SDS011;55593;51.994;5.882;2022-09-13T14:42:54;4.78;;;1.50;;
68614;SDS011;55593;51.994;5.882;2022-09-13T14:45:26;6.00;;;1.80;;
68614;SDS011;55593;51.994;5.882;2022-09-13T14:48:00;8.83;;;1.60;;
68614;SDS011;55593;51.994;5.882;2022-09-13T14:50:32;3.45;;;1.42;;
68614;SDS011;55593;51.994;5.882;2022-09-13T14:53:04;4.07;;;1.50;;
68614;SDS011;55593;51.994;5.882;2022-09-13T14:55:35;2.65;;;1.27;;
68614;SDS011;55593;51.994;5.882;2022-09-13T14:58:06;5.00;;;1.40;;
68614;SDS011;55593;51.994;5.882;2022-09-13T15:00:47;7.05;;;1.38;;
68614;SDS011;55593;51.994;5.882;2022-09-13T15:03:18;6.38;;;1.23;;
68614;SDS011;55593;51.994;5.882;2022-09-13T15:05:51;5.75;;;1.10;;
68614;SDS011;55593;51.994;5.882;2022-09-13T15:08:25;5.30;;;1.45;;
68614;SDS011;55593;51.994;5.882;2022-09-13T15:11:13;5.20;;;1.48;;
68614;SDS011;55593;51.994;5.882;2022-09-13T15:13:43;3.85;;;1.38;;
68614;SDS011;55593;51.994;5.882;2022-09-13T15:16:25;5.55;;;1.90;;
68614;SDS011;55593;51.994;5.882;2022-09-13T15:21:45;4.80;;;1.50;;
68614;SDS011;55593;51.994;5.882;2022-09-13T15:24:18;5.93;;;1.70;;
68614;SDS011;55593;51.994;5.882;2022-09-13T15:26:53;3.92;;;1.50;;
68614;SDS011;55593;51.994;5.882;2022-09-13T15:29:29;7.65;;;1.52;;
68614;SDS011;55593;51.994;5.882;2022-09-13T15:32:02;6.63;;;1.52;;
68614;SDS011;55593;51.994;5.882;2022-09-13T15:34:33;3.88;;;1.60;;
68614;SDS011;55593;51.994;5.882;2022-09-13T15:37:13;4.80;;;1.33;;
68614;SDS011;55593;51.994;5.882;2022-09-13T15:39:46;5.75;;;1.55;;
68614;SDS011;55593;51.994;5.882;2022-09-13T15:42:18;8.55;;;1.65;;
68614;SDS011;55593;51.994;5.882;2022-09-13T15:44:47;7.03;;;1.40;;
68614;SDS011;55593;51.994;5.882;2022-09-13T15:47:19;9.70;;;1.40;;